createdAt,value
2023-06-07T00:00:24.500Z,20.28
2023-06-07T00:01:24.477Z,20.08
2023-06-07T00:02:41.847Z,19.97
2023-06-07T00:03:26.586Z,19.95
2023-06-07T00:04:24.576Z,20.15
2023-06-07T00:05:24.437Z,19.94
2023-06-07T00:06:24.444Z,19.91
2023-06-07T00:07:24.440Z,19.91
2023-06-07T00:08:24.436Z,19.94
2023-06-07T00:09:24.459Z,19.94
2023-06-07T00:10:24.463Z,20.02
2023-06-07T00:11:24.424Z,20.10
2023-06-07T00:12:24.404Z,20.08
2023-06-07T00:13:24.430Z,20.00
2023-06-07T00:14:24.401Z,20.06
2023-06-07T00:15:24.397Z,19.98
2023-06-07T00:16:24.371Z,20.09
2023-06-07T00:17:24.506Z,20.09
2023-06-07T00:18:24.426Z,20.03
2023-06-07T00:19:24.361Z,20.03
2023-06-07T00:20:24.373Z,19.87
2023-06-07T00:21:24.369Z,19.72
2023-06-07T00:22:24.409Z,19.57
2023-06-07T00:23:24.362Z,19.54
2023-06-07T00:24:24.446Z,19.53
2023-06-07T00:25:24.365Z,19.65
2023-06-07T00:26:24.351Z,19.68
2023-06-07T00:27:24.334Z,19.69
2023-06-07T00:28:24.309Z,19.69
2023-06-07T00:29:24.312Z,19.91
2023-06-07T00:30:24.351Z,19.90
2023-06-07T00:31:24.318Z,19.88
2023-06-07T00:32:24.379Z,19.69
2023-06-07T00:33:24.306Z,19.78
2023-06-07T00:34:24.297Z,19.75
2023-06-07T00:35:24.283Z,19.70
2023-06-07T00:36:24.297Z,19.70
2023-06-07T00:37:24.264Z,19.91
2023-06-07T00:38:24.267Z,19.87
2023-06-07T00:39:24.236Z,19.95
2023-06-07T00:40:24.257Z,19.94
2023-06-07T00:41:24.243Z,19.73
2023-06-07T00:42:24.257Z,19.54
2023-06-07T00:43:24.212Z,19.63
2023-06-07T00:44:24.793Z,19.53
2023-06-07T00:45:24.246Z,19.50
2023-06-07T00:46:24.224Z,19.69
2023-06-07T00:47:24.240Z,19.66
2023-06-07T00:48:24.291Z,19.63
2023-06-07T00:49:24.220Z,19.70
2023-06-07T00:50:24.189Z,19.72
2023-06-07T00:51:24.176Z,19.68
2023-06-07T00:52:24.184Z,19.70
2023-06-07T00:53:24.213Z,19.60
2023-06-07T00:54:24.162Z,19.46
2023-06-07T00:55:24.145Z,19.36
2023-06-07T00:56:24.184Z,19.10
2023-06-07T00:57:24.161Z,19.02
2023-06-07T00:58:24.149Z,19.11
2023-06-07T00:59:24.126Z,18.90
2023-06-07T01:00:24.120Z,18.92
2023-06-07T01:01:24.137Z,18.77
2023-06-07T01:02:24.388Z,18.67
2023-06-07T01:03:24.178Z,18.59
2023-06-07T01:04:24.093Z,18.47
2023-06-07T01:05:24.085Z,18.61
2023-06-07T01:06:24.091Z,18.50
2023-06-07T01:07:24.118Z,18.68
2023-06-07T01:08:24.108Z,18.65
2023-06-07T01:09:24.072Z,18.82
2023-06-07T01:10:24.082Z,18.83
2023-06-07T01:11:24.088Z,18.91
2023-06-07T01:12:24.051Z,18.84
2023-06-07T01:13:24.049Z,19.17
2023-06-07T01:14:24.056Z,19.33
2023-06-07T01:15:24.117Z,19.39
2023-06-07T01:16:24.081Z,19.35
2023-06-07T01:17:24.030Z,19.42
2023-06-07T01:18:24.032Z,19.42
2023-06-07T01:19:24.109Z,19.40
2023-06-07T01:20:24.031Z,19.42
2023-06-07T01:21:23.999Z,19.39
2023-06-07T01:22:25.032Z,19.47
2023-06-07T01:23:24.018Z,19.54
2023-06-07T01:24:23.986Z,19.51
2023-06-07T01:25:24.045Z,19.65
2023-06-07T01:26:23.977Z,19.70
2023-06-07T01:27:23.982Z,19.75
2023-06-07T01:28:23.991Z,19.72
2023-06-07T01:29:23.984Z,19.70
2023-06-07T01:30:23.965Z,19.83
2023-06-07T01:31:23.990Z,19.97
2023-06-07T01:32:23.970Z,19.95
2023-06-07T01:33:23.960Z,19.95
2023-06-07T01:34:23.934Z,19.87
2023-06-07T01:35:23.934Z,19.90
2023-06-07T01:36:23.937Z,19.97
2023-06-07T01:37:23.901Z,20.15
2023-06-07T01:38:23.920Z,20.05
2023-06-07T01:39:23.899Z,20.05
2023-06-07T01:40:23.895Z,20.09
2023-06-07T01:41:23.897Z,20.10
2023-06-07T01:42:23.894Z,20.08
2023-06-07T01:43:23.896Z,20.16
2023-06-07T01:44:23.860Z,20.25
2023-06-07T01:45:23.858Z,20.18
2023-06-07T01:46:23.950Z,20.18
2023-06-07T01:47:23.968Z,20.27
2023-06-07T01:48:23.877Z,20.23
2023-06-07T01:49:23.848Z,20.16
2023-06-07T01:50:23.860Z,20.21
2023-06-07T01:51:23.835Z,20.21
2023-06-07T01:52:23.813Z,20.15
2023-06-07T01:53:23.809Z,20.24
2023-06-07T01:54:23.799Z,20.16
2023-06-07T01:55:23.803Z,20.10
2023-06-07T01:56:23.874Z,20.13
2023-06-07T01:57:23.780Z,20.16
2023-06-07T01:58:23.794Z,20.25
2023-06-07T01:59:23.775Z,20.20
2023-06-07T02:00:23.773Z,20.08
2023-06-07T02:01:23.812Z,20.13
2023-06-07T02:02:23.778Z,20.02
2023-06-07T02:03:23.789Z,20.05
2023-06-07T02:04:23.771Z,20.10
2023-06-07T02:05:23.823Z,20.09
2023-06-07T02:06:23.736Z,20.15
2023-06-07T02:07:23.747Z,20.18
2023-06-07T02:08:23.718Z,20.10
2023-06-07T02:09:23.747Z,19.87
2023-06-07T02:10:23.706Z,19.94
2023-06-07T02:11:23.737Z,20.02
2023-06-07T02:12:23.732Z,19.97
2023-06-07T02:13:23.691Z,19.95
2023-06-07T02:14:23.717Z,20.06
2023-06-07T02:15:23.731Z,20.06
2023-06-07T02:16:23.679Z,19.98
2023-06-07T02:17:23.835Z,19.90
2023-06-07T02:18:23.905Z,20.02
2023-06-07T02:19:23.678Z,19.86
2023-06-07T02:20:23.651Z,19.91
2023-06-07T02:21:23.800Z,19.79
2023-06-07T02:22:23.649Z,19.86
2023-06-07T02:23:23.721Z,19.91
2023-06-07T02:24:23.632Z,19.87
2023-06-07T02:25:23.662Z,19.97
2023-06-07T02:26:23.608Z,20.03
2023-06-07T02:27:23.630Z,19.95
2023-06-07T02:28:23.631Z,20.15
2023-06-07T02:29:23.618Z,20.08
2023-06-07T02:30:23.585Z,20.09
2023-06-07T02:31:23.625Z,20.16
2023-06-07T02:32:23.604Z,20.21
2023-06-07T02:33:23.585Z,20.24
2023-06-07T02:34:23.786Z,20.23
2023-06-07T02:35:23.590Z,20.20
2023-06-07T02:36:23.579Z,20.30
2023-06-07T02:37:23.560Z,20.30
2023-06-07T02:38:23.548Z,20.38
2023-06-07T02:39:23.535Z,20.47
2023-06-07T02:40:23.559Z,20.33
2023-06-07T02:41:23.588Z,20.46
2023-06-07T02:42:23.550Z,20.35
2023-06-07T02:43:23.517Z,20.33
2023-06-07T02:44:23.527Z,20.33
2023-06-07T02:45:23.518Z,20.25
2023-06-07T02:46:23.601Z,20.12
2023-06-07T02:47:23.498Z,20.09
2023-06-07T02:48:23.509Z,20.10
2023-06-07T02:49:23.491Z,20.00
2023-06-07T02:50:23.466Z,20.09
2023-06-07T02:51:23.474Z,20.33
2023-06-07T02:52:23.461Z,20.00
2023-06-07T02:53:23.465Z,20.02
2023-06-07T02:54:23.508Z,19.86
2023-06-07T02:55:23.442Z,20.06
2023-06-07T02:56:23.457Z,20.16
2023-06-07T02:57:23.471Z,20.08
2023-06-07T02:58:23.410Z,20.06
2023-06-07T02:59:23.404Z,20.03
2023-06-07T03:00:23.403Z,20.03
2023-06-07T03:01:23.468Z,20.00
2023-06-07T03:02:23.488Z,19.95
2023-06-07T03:03:23.631Z,19.87
2023-06-07T03:04:23.387Z,19.75
2023-06-07T03:05:23.366Z,19.83
2023-06-07T03:06:23.378Z,19.93
2023-06-07T03:07:23.403Z,19.80
2023-06-07T03:08:23.386Z,19.83
2023-06-07T03:09:23.375Z,19.55
2023-06-07T03:10:23.348Z,19.57
2023-06-07T03:11:23.436Z,19.80
2023-06-07T03:12:24.232Z,19.66
2023-06-07T03:13:23.340Z,19.54
2023-06-07T03:14:23.356Z,19.53
2023-06-07T03:15:23.380Z,19.69
2023-06-07T03:16:23.346Z,19.57
2023-06-07T03:17:23.343Z,19.54
2023-06-07T03:18:23.313Z,19.42
2023-06-07T03:19:23.325Z,19.69
2023-06-07T03:20:23.324Z,19.79
2023-06-07T03:21:23.306Z,19.66
2023-06-07T03:22:23.283Z,19.60
2023-06-07T03:23:23.321Z,19.29
2023-06-07T03:24:23.303Z,19.32
2023-06-07T03:25:23.312Z,19.48
2023-06-07T03:26:23.258Z,19.57
2023-06-07T03:27:23.257Z,19.79
2023-06-07T03:28:23.262Z,19.90
2023-06-07T03:29:24.269Z,19.97
2023-06-07T03:30:23.263Z,19.95
2023-06-07T03:31:23.294Z,20.06
2023-06-07T03:32:23.262Z,19.95
2023-06-07T03:33:23.212Z,20.16
2023-06-07T03:34:23.213Z,20.13
2023-06-07T03:35:23.265Z,20.21
2023-06-07T03:36:23.201Z,20.21
2023-06-07T03:37:23.436Z,20.27
2023-06-07T03:38:23.234Z,20.21
2023-06-07T03:39:23.234Z,20.34
2023-06-07T03:40:23.184Z,20.35
2023-06-07T03:41:23.216Z,20.28
2023-06-07T03:42:23.152Z,20.30
2023-06-07T03:43:23.209Z,20.41
2023-06-07T03:44:23.172Z,20.34
2023-06-07T03:45:23.134Z,20.34
2023-06-07T03:46:23.153Z,20.24
2023-06-07T03:47:23.219Z,20.27
2023-06-07T03:48:23.266Z,20.28
2023-06-07T03:49:23.155Z,20.41
2023-06-07T03:50:23.126Z,20.39
2023-06-07T03:51:23.124Z,20.51
2023-06-07T03:52:23.117Z,20.58
2023-06-07T03:53:23.134Z,20.54
2023-06-07T03:54:23.110Z,20.54
2023-06-07T03:55:23.092Z,20.38
2023-06-07T03:56:23.077Z,20.42
2023-06-07T03:57:23.066Z,20.50
2023-06-07T03:58:23.096Z,20.54
2023-06-07T03:59:23.095Z,20.61
2023-06-07T04:00:23.071Z,20.54
2023-06-07T04:01:23.040Z,20.50
2023-06-07T04:02:23.094Z,20.54
2023-06-07T04:03:23.178Z,20.53
2023-06-07T04:04:23.093Z,20.54
2023-06-07T04:05:23.025Z,20.56
2023-06-07T04:06:23.078Z,20.64
2023-06-07T04:07:23.004Z,20.65
2023-06-07T04:08:23.004Z,20.61
2023-06-07T04:09:22.984Z,20.49
2023-06-07T04:10:23.026Z,20.51
2023-06-07T04:11:23.003Z,20.47
2023-06-07T04:12:22.970Z,20.51
2023-06-07T04:13:22.995Z,20.62
2023-06-07T04:14:22.993Z,20.68
2023-06-07T04:15:22.986Z,20.56
2023-06-07T04:16:22.995Z,20.64
2023-06-07T04:17:22.968Z,20.66
2023-06-07T04:18:22.944Z,20.69
2023-06-07T04:19:22.936Z,20.71
2023-06-07T04:20:22.948Z,20.86
2023-06-07T04:21:22.937Z,20.95
2023-06-07T04:22:22.905Z,20.86
2023-06-07T04:23:23.797Z,20.87
2023-06-07T04:24:23.008Z,20.84
2023-06-07T04:25:22.920Z,20.81
2023-06-07T04:26:22.947Z,20.87
2023-06-07T04:27:22.897Z,20.84
2023-06-07T04:28:22.885Z,20.95
2023-06-07T04:29:22.871Z,20.84
2023-06-07T04:30:22.844Z,20.64
2023-06-07T04:31:22.894Z,20.58
2023-06-07T04:32:22.923Z,20.59
2023-06-07T04:33:22.849Z,20.53
2023-06-07T04:34:22.850Z,20.39
2023-06-07T04:35:22.843Z,20.51
2023-06-07T04:36:22.823Z,20.28
2023-06-07T04:37:22.841Z,20.24
2023-06-07T04:38:23.681Z,20.38
2023-06-07T04:39:23.836Z,20.42
2023-06-07T04:40:22.796Z,20.54
2023-06-07T04:41:22.805Z,20.53
2023-06-07T04:42:22.795Z,20.46
2023-06-07T04:43:22.781Z,20.23
2023-06-07T04:44:22.792Z,20.39
2023-06-07T04:45:22.767Z,20.59
2023-06-07T04:46:22.799Z,20.56
2023-06-07T04:47:22.784Z,20.38
2023-06-07T04:48:22.777Z,20.34
2023-06-07T04:49:25.404Z,20.35
2023-06-07T04:50:23.694Z,20.16
2023-06-07T04:51:22.727Z,20.09
2023-06-07T04:52:22.788Z,20.23
2023-06-07T04:53:22.706Z,20.09
2023-06-07T04:54:22.781Z,20.39
2023-06-07T04:55:22.775Z,20.53
2023-06-07T04:56:22.724Z,20.34
2023-06-07T04:57:22.740Z,20.30
2023-06-07T04:58:22.818Z,20.06
2023-06-07T04:59:22.694Z,20.15
2023-06-07T05:00:22.690Z,20.20
2023-06-07T05:01:22.738Z,20.24
2023-06-07T05:02:22.732Z,20.34
2023-06-07T05:03:22.940Z,20.34
2023-06-07T05:04:22.639Z,20.47
2023-06-07T05:05:22.726Z,20.42
2023-06-07T05:06:22.665Z,20.23
2023-06-07T05:07:22.645Z,20.12
2023-06-07T05:08:22.637Z,20.08
2023-06-07T05:09:22.702Z,20.02
2023-06-07T05:10:22.738Z,20.05
2023-06-07T05:11:22.625Z,20.05
2023-06-07T05:12:22.628Z,20.08
2023-06-07T05:13:22.584Z,20.42
2023-06-07T05:14:22.618Z,20.34
2023-06-07T05:15:22.584Z,20.20
2023-06-07T05:16:22.703Z,20.38
2023-06-07T05:17:22.549Z,20.39
2023-06-07T05:18:22.564Z,20.27
2023-06-07T05:19:22.554Z,20.16
2023-06-07T05:20:22.561Z,20.20
2023-06-07T05:21:22.538Z,20.13
2023-06-07T05:22:22.541Z,20.08
2023-06-07T05:23:22.523Z,20.41
2023-06-07T05:24:22.607Z,20.30
2023-06-07T05:25:22.529Z,20.54
2023-06-07T05:26:22.511Z,20.46
2023-06-07T05:27:22.635Z,20.38
2023-06-07T05:28:22.507Z,20.31
2023-06-07T05:29:22.470Z,20.47
2023-06-07T05:30:22.477Z,20.42
2023-06-07T05:31:22.591Z,20.68
2023-06-07T05:32:22.505Z,20.96
2023-06-07T05:33:22.463Z,20.90
2023-06-07T05:34:22.576Z,20.56
2023-06-07T05:35:22.449Z,20.41
2023-06-07T05:36:22.454Z,20.53
2023-06-07T05:37:22.457Z,20.51
2023-06-07T05:38:22.512Z,20.69
2023-06-07T05:39:22.471Z,20.43
2023-06-07T05:40:22.398Z,20.59
2023-06-07T05:41:22.421Z,20.65
2023-06-07T05:42:22.422Z,20.56
2023-06-07T05:43:22.419Z,20.49
2023-06-07T05:44:22.469Z,20.58
2023-06-07T05:45:22.376Z,20.62
2023-06-07T05:46:22.398Z,20.43
2023-06-07T05:47:22.367Z,20.49
2023-06-07T05:48:22.371Z,20.43
2023-06-07T05:49:22.378Z,20.49
2023-06-07T05:50:22.402Z,20.51
2023-06-07T05:51:22.358Z,20.59
2023-06-07T05:52:22.334Z,20.62
2023-06-07T05:53:22.385Z,20.66
2023-06-07T05:54:22.347Z,20.62
2023-06-07T05:55:22.303Z,20.50
2023-06-07T05:56:22.309Z,20.27
2023-06-07T05:57:22.282Z,20.39
2023-06-07T05:58:22.292Z,20.41
2023-06-07T05:59:22.305Z,20.50
2023-06-07T06:00:22.298Z,20.69
2023-06-07T06:01:22.281Z,20.51
2023-06-07T06:02:22.319Z,20.49
2023-06-07T06:03:22.282Z,20.50
2023-06-07T06:04:22.320Z,20.49
2023-06-07T06:05:22.400Z,20.50
2023-06-07T06:06:22.269Z,20.68
2023-06-07T06:07:22.234Z,20.66
2023-06-07T06:08:22.253Z,20.80
2023-06-07T06:09:22.231Z,20.56
2023-06-07T06:10:22.239Z,20.66
2023-06-07T06:11:22.236Z,20.58
2023-06-07T06:12:22.213Z,20.84
2023-06-07T06:13:22.197Z,20.74
2023-06-07T06:14:22.791Z,20.77
2023-06-07T06:15:22.205Z,20.86
2023-06-07T06:16:22.231Z,21.06
2023-06-07T06:17:22.859Z,21.21
2023-06-07T06:18:22.174Z,21.41
2023-06-07T06:19:22.153Z,21.29
2023-06-07T06:20:22.169Z,20.83
2023-06-07T06:21:22.178Z,20.81
2023-06-07T06:22:22.162Z,20.93
2023-06-07T06:23:22.246Z,20.79
2023-06-07T06:24:22.153Z,20.91
2023-06-07T06:25:22.129Z,20.87
2023-06-07T06:26:22.129Z,21.19
2023-06-07T06:27:22.226Z,20.68
2023-06-07T06:28:22.137Z,20.83
2023-06-07T06:29:22.090Z,20.83
2023-06-07T06:30:22.224Z,20.79
2023-06-07T06:31:22.242Z,20.91
2023-06-07T06:32:22.109Z,20.79
2023-06-07T06:33:22.103Z,20.96
2023-06-07T06:34:22.041Z,21.13
2023-06-07T06:35:22.055Z,20.91
2023-06-07T06:36:22.111Z,20.98
2023-06-07T06:37:22.036Z,21.01
2023-06-07T06:38:22.025Z,20.89
2023-06-07T06:39:22.029Z,20.96
2023-06-07T06:40:22.023Z,21.34
2023-06-07T06:41:22.023Z,21.69
2023-06-07T06:42:22.001Z,21.95
2023-06-07T06:43:21.991Z,22.38
2023-06-07T06:44:21.996Z,22.52
2023-06-07T06:45:21.981Z,22.65
2023-06-07T06:46:22.784Z,22.46
2023-06-07T06:47:22.793Z,22.37
2023-06-07T06:48:21.954Z,22.20
2023-06-07T06:49:21.973Z,22.14
2023-06-07T06:50:32.993Z,22.46
2023-06-07T06:51:24.008Z,22.68
2023-06-07T06:52:21.921Z,22.46
2023-06-07T06:53:21.925Z,22.43
2023-06-07T06:54:21.902Z,22.43
2023-06-07T06:55:21.909Z,22.01
2023-06-07T06:56:21.916Z,21.81
2023-06-07T06:57:21.928Z,21.51
2023-06-07T06:58:21.903Z,21.90
2023-06-07T06:59:21.964Z,21.92
2023-06-07T07:00:21.913Z,21.54
2023-06-07T07:01:21.895Z,21.53
2023-06-07T07:02:22.043Z,21.46
2023-06-07T07:03:21.936Z,21.63
2023-06-07T07:04:22.000Z,21.82
2023-06-07T07:05:21.857Z,21.79
2023-06-07T07:06:21.884Z,21.67
2023-06-07T07:07:21.884Z,21.36
2023-06-07T07:08:21.935Z,21.44
2023-06-07T07:09:21.872Z,21.60
2023-06-07T07:10:21.927Z,21.74
2023-06-07T07:11:21.864Z,21.48
2023-06-07T07:12:21.840Z,21.56
2023-06-07T07:13:21.811Z,21.78
2023-06-07T07:14:21.912Z,21.51
2023-06-07T07:15:21.773Z,21.53
2023-06-07T07:16:21.809Z,21.51
2023-06-07T07:17:22.737Z,21.79
2023-06-07T07:18:22.065Z,21.97
2023-06-07T07:19:21.766Z,22.13
2023-06-07T07:20:21.759Z,22.25
2023-06-07T07:21:21.764Z,22.22
2023-06-07T07:22:21.800Z,22.57
2023-06-07T07:23:21.794Z,22.29
2023-06-07T07:24:21.795Z,22.28
2023-06-07T07:25:21.731Z,22.49
2023-06-07T07:26:21.721Z,22.46
2023-06-07T07:27:21.769Z,22.27
2023-06-07T07:28:21.725Z,22.28
2023-06-07T07:29:21.758Z,22.90
2023-06-07T07:30:21.752Z,23.09
2023-06-07T07:31:21.690Z,22.89
2023-06-07T07:32:21.727Z,22.99
2023-06-07T07:33:21.675Z,23.22
2023-06-07T07:34:21.688Z,22.99
2023-06-07T07:35:21.771Z,22.90
2023-06-07T07:36:21.655Z,22.65
2023-06-07T07:37:21.661Z,22.31
2023-06-07T07:38:21.669Z,22.32
2023-06-07T07:39:21.649Z,22.46
2023-06-07T07:40:21.663Z,22.46
2023-06-07T07:41:21.628Z,22.60
2023-06-07T07:42:21.617Z,22.68
2023-06-07T07:43:21.662Z,22.97
2023-06-07T07:44:21.609Z,22.94
2023-06-07T07:45:21.611Z,22.74
2023-06-07T07:46:21.617Z,22.83
2023-06-07T07:47:21.584Z,22.67
2023-06-07T07:48:21.671Z,22.62
2023-06-07T07:49:21.562Z,22.78
2023-06-07T07:50:21.616Z,23.04
2023-06-07T07:51:21.566Z,23.15
2023-06-07T07:52:22.769Z,22.87
2023-06-07T07:53:22.614Z,22.59
2023-06-07T07:54:21.551Z,22.68
2023-06-07T07:55:21.562Z,22.99
2023-06-07T07:56:21.555Z,23.19
2023-06-07T07:57:21.523Z,23.35
2023-06-07T07:58:21.562Z,23.77
2023-06-07T07:59:21.533Z,23.68
2023-06-07T08:00:21.522Z,23.53
2023-06-07T08:01:21.550Z,23.65
2023-06-07T08:02:21.572Z,23.52
2023-06-07T08:03:21.665Z,23.39
2023-06-07T08:04:21.540Z,23.35
2023-06-07T08:05:21.484Z,23.15
2023-06-07T08:06:21.546Z,23.24
2023-06-07T08:07:21.506Z,23.31
2023-06-07T08:08:21.471Z,23.34
2023-06-07T08:09:21.477Z,23.50
2023-06-07T08:10:21.530Z,23.27
2023-06-07T08:11:21.428Z,23.38
2023-06-07T08:12:22.497Z,23.46
2023-06-07T08:13:21.474Z,23.77
2023-06-07T08:14:21.461Z,23.77
2023-06-07T08:15:21.413Z,23.40
2023-06-07T08:16:21.518Z,23.38
2023-06-07T08:17:21.420Z,23.15
2023-06-07T08:18:21.392Z,23.22
2023-06-07T08:19:21.438Z,23.14
2023-06-07T08:20:21.456Z,23.11
2023-06-07T08:21:21.449Z,23.04
2023-06-07T08:22:21.412Z,22.87
2023-06-07T08:23:21.400Z,22.69
2023-06-07T08:24:21.455Z,22.68
2023-06-07T08:25:21.433Z,23.14
2023-06-07T08:26:21.365Z,23.35
2023-06-07T08:27:21.347Z,23.20
2023-06-07T08:28:21.341Z,23.40
2023-06-07T08:29:23.103Z,23.50
2023-06-07T08:30:22.375Z,23.60
2023-06-07T08:31:21.362Z,23.67
2023-06-07T08:32:21.316Z,23.79
2023-06-07T08:33:21.316Z,23.79
2023-06-07T08:34:21.326Z,23.65
2023-06-07T08:35:21.289Z,23.80
2023-06-07T08:36:22.327Z,23.89
2023-06-07T08:37:21.287Z,24.01
2023-06-07T08:38:21.381Z,23.68
2023-06-07T08:39:21.809Z,23.64
2023-06-07T08:40:21.307Z,23.77
2023-06-07T08:41:21.272Z,23.75
2023-06-07T08:42:21.244Z,23.94
2023-06-07T08:43:21.245Z,23.98
2023-06-07T08:44:21.322Z,24.01
2023-06-07T08:45:21.253Z,23.97
2023-06-07T08:46:21.304Z,24.02
2023-06-07T08:47:21.283Z,23.98
2023-06-07T08:48:21.214Z,24.10
2023-06-07T08:49:21.242Z,24.02
2023-06-07T08:50:21.288Z,24.10
2023-06-07T08:51:21.241Z,24.12
2023-06-07T08:52:21.177Z,24.20
2023-06-07T08:53:21.209Z,24.00
2023-06-07T08:54:21.269Z,24.13
2023-06-07T08:55:21.240Z,24.16
2023-06-07T08:56:21.208Z,23.82
2023-06-07T08:57:21.175Z,23.68
2023-06-07T08:58:21.164Z,23.46
2023-06-07T08:59:21.157Z,23.58
2023-06-07T09:00:21.185Z,23.83
2023-06-07T09:01:21.186Z,24.01
2023-06-07T09:02:21.189Z,23.94
2023-06-07T09:03:21.287Z,24.17
2023-06-07T09:04:21.190Z,24.02
2023-06-07T09:05:21.120Z,24.14
2023-06-07T09:06:21.133Z,24.01
2023-06-07T09:07:21.098Z,24.41
2023-06-07T09:08:21.100Z,24.80
2023-06-07T09:09:21.116Z,24.59
2023-06-07T09:10:21.115Z,24.56
2023-06-07T09:11:21.125Z,24.60
2023-06-07T09:12:21.090Z,24.79
2023-06-07T09:13:21.094Z,24.73
2023-06-07T09:14:21.047Z,24.45
2023-06-07T09:15:21.089Z,24.31
2023-06-07T09:16:21.169Z,24.61
2023-06-07T09:17:21.164Z,25.02
2023-06-07T09:18:21.196Z,25.07
2023-06-07T09:19:21.027Z,25.34
2023-06-07T09:20:21.033Z,25.28
2023-06-07T09:21:21.022Z,25.13
2023-06-07T09:22:21.057Z,24.94
2023-06-07T09:23:21.021Z,24.80
2023-06-07T09:24:21.065Z,25.00
2023-06-07T09:25:22.018Z,25.42
2023-06-07T09:26:20.995Z,25.75
2023-06-07T09:27:21.070Z,25.82
2023-06-07T09:28:20.991Z,25.62
2023-06-07T09:29:21.932Z,25.64
2023-06-07T09:30:22.012Z,25.52
2023-06-07T09:31:21.050Z,25.77
2023-06-07T09:32:21.033Z,25.67
2023-06-07T09:33:21.036Z,25.80
2023-06-07T09:34:21.028Z,25.72
2023-06-07T09:35:20.991Z,25.77
2023-06-07T09:36:20.992Z,25.83
2023-06-07T09:37:20.957Z,25.98
2023-06-07T09:38:20.947Z,25.79
2023-06-07T09:39:20.925Z,25.67
2023-06-07T09:40:20.939Z,25.75
2023-06-07T09:41:20.988Z,25.72
2023-06-07T09:42:21.048Z,25.22
2023-06-07T09:43:20.906Z,25.22
2023-06-07T09:44:20.895Z,25.22
2023-06-07T09:45:20.907Z,25.13
2023-06-07T09:46:20.986Z,25.06
2023-06-07T09:47:21.071Z,25.00
2023-06-07T09:48:20.990Z,25.00
2023-06-07T09:49:20.993Z,24.85
2023-06-07T09:50:20.966Z,24.98
2023-06-07T09:51:20.896Z,25.17
2023-06-07T09:52:20.854Z,25.07
2023-06-07T09:53:20.885Z,24.71
2023-06-07T09:54:20.842Z,24.63
2023-06-07T09:55:21.247Z,24.57
2023-06-07T09:56:21.866Z,24.50
2023-06-07T09:57:20.812Z,24.12
2023-06-07T09:58:20.960Z,24.02
2023-06-07T09:59:20.974Z,24.23
2023-06-07T10:00:20.846Z,24.41
2023-06-07T10:01:20.882Z,24.01
2023-06-07T10:02:20.831Z,23.97
2023-06-07T10:03:20.900Z,23.80
2023-06-07T10:04:20.815Z,23.65
2023-06-07T10:05:20.792Z,23.57
2023-06-07T10:06:20.762Z,23.50
2023-06-07T10:07:20.925Z,23.42
2023-06-07T10:08:20.832Z,23.39
2023-06-07T10:09:20.806Z,23.43
2023-06-07T10:10:20.851Z,23.71
2023-06-07T10:11:20.777Z,23.50
2023-06-07T10:12:20.749Z,23.55
2023-06-07T10:13:20.839Z,23.71
2023-06-07T10:14:20.925Z,23.79
2023-06-07T10:15:20.736Z,23.79
2023-06-07T10:16:20.874Z,23.77
2023-06-07T10:17:20.928Z,24.04
2023-06-07T10:18:20.774Z,24.04
2023-06-07T10:19:20.739Z,23.90
2023-06-07T10:20:20.786Z,24.22
2023-06-07T10:21:20.734Z,24.60
2023-06-07T10:22:20.691Z,24.38
2023-06-07T10:23:22.783Z,24.69
2023-06-07T10:24:20.808Z,25.25
2023-06-07T10:25:20.717Z,25.06
2023-06-07T10:26:20.733Z,24.80
2023-06-07T10:27:20.681Z,24.91
2023-06-07T10:28:20.696Z,25.05
2023-06-07T10:29:22.296Z,25.52
2023-06-07T10:30:21.662Z,25.82
2023-06-07T10:31:20.660Z,25.46
2023-06-07T10:32:20.651Z,25.37
2023-06-07T10:33:20.687Z,25.54
2023-06-07T10:34:20.640Z,25.46
2023-06-07T10:35:20.613Z,24.97
2023-06-07T10:36:20.683Z,24.82
2023-06-07T10:37:20.663Z,24.92
2023-06-07T10:38:20.604Z,24.73
2023-06-07T10:39:21.610Z,24.38
2023-06-07T10:40:20.596Z,24.47
2023-06-07T10:41:20.588Z,24.41
2023-06-07T10:42:20.583Z,24.82
2023-06-07T10:43:20.594Z,25.07
2023-06-07T10:44:20.545Z,25.91
2023-06-07T10:45:20.589Z,26.46
2023-06-07T10:46:20.748Z,27.58
2023-06-07T10:47:21.662Z,28.06
2023-06-07T10:48:20.639Z,28.28
2023-06-07T10:49:20.534Z,28.80
2023-06-07T10:50:20.582Z,27.69
2023-06-07T10:51:20.490Z,27.66
2023-06-07T10:52:20.687Z,27.36
2023-06-07T10:53:20.535Z,27.69
2023-06-07T10:54:20.506Z,26.46
2023-06-07T10:55:20.499Z,26.59
2023-06-07T10:56:20.526Z,26.77
2023-06-07T10:57:20.474Z,27.13
2023-06-07T10:58:20.523Z,27.66
2023-06-07T10:59:20.508Z,27.09
2023-06-07T11:00:20.452Z,26.61
2023-06-07T11:01:20.463Z,26.28
2023-06-07T11:02:20.595Z,26.15
2023-06-07T11:03:20.490Z,25.52
2023-06-07T11:04:20.559Z,25.02
2023-06-07T11:05:20.465Z,25.20
2023-06-07T11:06:20.428Z,26.29
2023-06-07T11:07:20.544Z,26.65
2023-06-07T11:08:20.407Z,27.06
2023-06-07T11:09:20.435Z,28.33
2023-06-07T11:10:20.430Z,29.41
2023-06-07T11:11:20.433Z,29.00
2023-06-07T11:12:20.394Z,28.91
2023-06-07T11:13:20.404Z,29.11
2023-06-07T11:14:20.362Z,29.44
2023-06-07T11:15:20.370Z,29.04
2023-06-07T11:16:20.408Z,28.90
2023-06-07T11:17:20.414Z,29.75
2023-06-07T11:18:20.395Z,30.07
2023-06-07T11:19:20.455Z,30.15
2023-06-07T11:20:20.380Z,30.15
2023-06-07T11:21:20.419Z,30.34
2023-06-07T11:22:20.364Z,30.94
2023-06-07T11:23:20.319Z,29.84
2023-06-07T11:24:20.586Z,29.49
2023-06-07T11:25:20.347Z,29.94
2023-06-07T11:26:20.319Z,28.78
2023-06-07T11:27:20.333Z,28.63
2023-06-07T11:28:20.287Z,28.73
2023-06-07T11:29:20.382Z,27.39
2023-06-07T11:30:20.339Z,28.22
2023-06-07T11:31:20.298Z,30.02
2023-06-07T11:32:20.355Z,30.65
2023-06-07T11:33:20.409Z,31.33
2023-06-07T11:34:20.506Z,30.56
2023-06-07T11:35:20.255Z,31.75
2023-06-07T11:36:20.754Z,31.31
2023-06-07T11:37:21.283Z,31.46
2023-06-07T11:38:20.384Z,30.75
2023-06-07T11:39:20.285Z,30.61
2023-06-07T11:40:20.243Z,29.55
2023-06-07T11:41:20.229Z,29.65
2023-06-07T11:42:20.210Z,29.11
2023-06-07T11:43:20.231Z,28.09
2023-06-07T11:44:20.253Z,28.65
2023-06-07T11:45:20.243Z,28.23
2023-06-07T11:46:20.202Z,28.93
2023-06-07T11:47:20.378Z,29.01
2023-06-07T11:48:20.249Z,28.60
2023-06-07T11:49:20.260Z,28.33
2023-06-07T11:50:20.208Z,28.32
2023-06-07T11:51:20.195Z,28.50
2023-06-07T11:52:20.234Z,27.95
2023-06-07T11:53:20.184Z,27.32
2023-06-07T11:54:20.176Z,27.10
2023-06-07T11:55:20.137Z,28.44
2023-06-07T11:56:20.164Z,29.89
2023-06-07T11:57:20.134Z,29.78
2023-06-07T11:58:20.124Z,29.97
2023-06-07T11:59:20.114Z,29.53
2023-06-07T12:00:20.223Z,29.55
2023-06-07T12:01:20.118Z,29.79
2023-06-07T12:02:20.202Z,30.26
2023-06-07T12:03:20.301Z,30.05
2023-06-07T12:04:20.206Z,30.40
2023-06-07T12:05:20.096Z,30.46
2023-06-07T12:06:20.140Z,30.69
2023-06-07T12:07:20.076Z,30.59
2023-06-07T12:08:20.105Z,29.66
2023-06-07T12:09:21.172Z,29.71
2023-06-07T12:10:20.053Z,29.35
2023-06-07T12:11:20.057Z,29.04
2023-06-07T12:12:20.188Z,28.75
2023-06-07T12:13:20.082Z,28.59
2023-06-07T12:14:20.053Z,28.32
2023-06-07T12:15:20.020Z,28.23
2023-06-07T12:16:20.085Z,28.33
2023-06-07T12:17:20.023Z,28.50
2023-06-07T12:18:20.010Z,27.57
2023-06-07T12:19:20.028Z,27.85
2023-06-07T12:20:20.005Z,27.58
2023-06-07T12:21:20.018Z,27.64
2023-06-07T12:22:20.161Z,27.39
2023-06-07T12:23:19.966Z,27.66
2023-06-07T12:24:20.001Z,27.36
2023-06-07T12:25:20.044Z,27.96
2023-06-07T12:26:20.073Z,27.99
2023-06-07T12:27:19.980Z,27.41
2023-06-07T12:28:19.955Z,27.71
2023-06-07T12:29:19.975Z,27.29
2023-06-07T12:30:19.935Z,27.86
2023-06-07T12:31:19.967Z,27.86
2023-06-07T12:32:20.041Z,27.47
2023-06-07T12:33:19.919Z,27.41
2023-06-07T12:34:19.917Z,27.01
2023-06-07T12:35:19.897Z,27.01
2023-06-07T12:36:19.885Z,27.10
2023-06-07T12:37:19.926Z,28.25
2023-06-07T12:38:19.952Z,28.87
2023-06-07T12:39:19.962Z,29.59
2023-06-07T12:40:19.937Z,30.29
2023-06-07T12:41:19.851Z,30.64
2023-06-07T12:42:19.873Z,31.33
2023-06-07T12:43:19.881Z,31.64
2023-06-07T12:44:19.852Z,30.27
2023-06-07T12:45:19.877Z,28.90
2023-06-07T12:46:19.905Z,28.17
2023-06-07T12:47:19.858Z,27.85
2023-06-07T12:48:20.030Z,27.89
2023-06-07T12:49:20.014Z,27.41
2023-06-07T12:50:19.842Z,27.09
2023-06-07T12:51:19.830Z,26.81
2023-06-07T12:52:19.840Z,27.05